Aqaba Port, Jordan

10:58 AM EEST on August 20, 2014 (GMT +0300)
TalaBay Marina | Change Station
CLOSE
Current Station
Personal Weather Station
Location: Aqaba, AQABA
Elevation: 36 ft
Nearby Weather Stations

Elev 36 ft 29.41 °N, 34.98 °E | Updated 2 minutes ago

Clear
Clear
91.4 °F
Feels Like 93 °F
N
7.0
Wind Variable Wind from WNW

Today
High -- | Low -- °F
--% Chance of Precip.
Yesterday
High -- | Low -- °F
Precip. -- in
6:10 AM 7:15 PM
Waning Crescent, 23% visible
Pressure 29.89 in
Visibility -9999.0 miles
Clouds
Heat Index 93 °F
Dew Point 65 °F
Humidity 41%
Rainfall 0.00 in
Snow Depth Not available.
UV 2.9 out of 12
Pollen Not available.
Air Quality Not available.
Flu Activity Not available.
METAR LLET 200750Z 05015KT CAVOK 35/17 Q1012

More Conditions Fewer Conditions

Pressure 29.89 in
Visibility -9999.0 miles
Clouds
Heat Index 93 °F
Dew Point 65 °F
Humidity 41%
Rainfall 0.00 in
Snow Depth Not available.
UV 2.9 out of 12
Pollen Not available.
Air Quality Not available.
Flu Activity Not available.
METAR LLET 200750Z 05015KT CAVOK 35/17 Q1012

More Conditions Fewer Conditions

10-Day Weather Forecast

Almanac

Astronomy

Aug. 20, 2014 Rise Set
Actual Time 6:10 AM EEST 7:15 PM EEST
Civil Twilight 5:46 AM EEST 7:40 PM EEST
Nautical Twilight 5:16 AM EEST 8:09 PM EEST
Astronomical Twilight 4:46 AM EEST 8:39 PM EEST
Moon 1:41 AM EEST 3:36 PM EEST
Length of Visible Light 13h 54m
Length of Day
13h 04m
Tomorrow will be 1m 36s shorter.
Waning Crescent, 23% of the Moon is Illuminated
Today
Waning Crescent
Aug 25
New
Sep 2
First Quarter
Sep 8
Full
Sep 15
Last Quarter

Yesterday's Extremes

Country Highs Country Lows

Community

WunderPhotos

Upload Photos

1,745,592 photos uploaded!

Nearby

Snow Depth

Not available.

Earthquake Activity

City Distance Mag. Time & Date
No recent earthquake activity has been reported nearby.
Minimum magnitude displayed is 2.5.

Coastal Water Temperatures

Place Temperature
No Stations Reporting

Nearby Weather Stations